Time,TemperatureF,DewpointF,PressureIn,WindDirection,WindDirectionDegrees,WindSpeedMPH,WindSpeedGustMPH,Humidity,HourlyPrecipIn,Conditions,Clouds,dailyrainin,SoftwareType,DateUTC
2013-06-05 00:02:00,53.0,48.0,30.12,WNW,296,0.0,0.0,83,0.00,,,0.00,,2013-06-05 04:02:00,
2013-06-05 00:13:00,53.0,48.0,30.12,WNW,296,0.0,0.0,83,0.00,,,0.00,,2013-06-05 04:13:00,
2013-06-05 00:23:00,52.0,48.0,30.11,WNW,296,0.0,0.0,85,0.00,,,0.00,,2013-06-05 04:23:00,
2013-06-05 00:33:00,52.0,48.0,30.11,WNW,296,0.0,0.0,85,0.00,,,0.00,,2013-06-05 04:33:00,
2013-06-05 00:42:00,52.0,48.0,30.11,WNW,296,0.0,0.0,85,0.00,,,0.00,,2013-06-05 04:42:00,
2013-06-05 00:53:00,52.0,48.0,30.11,WNW,296,0.0,0.0,85,0.00,,,0.00,,2013-06-05 04:53:00,
2013-06-05 01:02:00,52.0,48.0,30.11,WNW,296,0.0,0.0,86,0.00,,,0.00,,2013-06-05 05:02:00,
2013-06-05 01:12:00,52.0,48.0,30.11,WNW,296,0.0,0.0,86,0.00,,,0.00,,2013-06-05 05:12:00,
2013-06-05 01:22:00,52.0,49.0,30.11,WNW,296,0.0,0.0,88,0.00,,,0.00,,2013-06-05 05:22:00,
2013-06-05 01:32:00,51.0,47.0,30.11,WNW,296,0.0,0.0,87,0.00,,,0.00,,2013-06-05 05:32:00,
2013-06-05 01:42:00,51.0,47.0,30.11,WNW,296,0.0,0.0,87,0.00,,,0.00,,2013-06-05 05:42:00,
2013-06-05 01:52:00,51.0,48.0,30.11,WNW,296,0.0,0.0,88,0.00,,,0.00,,2013-06-05 05:52:00,
2013-06-05 02:02:00,51.0,48.0,30.11,WNW,296,0.0,0.0,89,0.00,,,0.00,,2013-06-05 06:02:00,
2013-06-05 02:12:00,51.0,48.0,30.11,WNW,296,0.0,0.0,89,0.00,,,0.00,,2013-06-05 06:12:00,
2013-06-05 02:22:00,51.0,48.0,30.10,WNW,296,0.0,0.0,90,0.00,,,0.00,,2013-06-05 06:22:00,
2013-06-05 02:32:00,51.0,48.0,30.11,WNW,296,0.0,0.0,91,0.00,,,0.00,,2013-06-05 06:32:00,
2013-06-05 02:42:00,51.0,48.0,30.11,WNW,296,0.0,0.0,91,0.00,,,0.00,,2013-06-05 06:42:00,
2013-06-05 02:52:00,50.0,47.0,30.11,WNW,296,0.0,0.0,91,0.00,,,0.00,,2013-06-05 06:52:00,
2013-06-05 03:02:00,50.0,48.0,30.11,WNW,296,0.0,0.0,92,0.00,,,0.00,,2013-06-05 07:02:00,
2013-06-05 03:12:00,50.0,48.0,30.11,WNW,296,0.0,0.0,92,0.00,,,0.00,,2013-06-05 07:12:00,
2013-06-05 03:22:00,50.0,48.0,30.10,WNW,296,0.0,0.0,93,0.00,,,0.00,,2013-06-05 07:22:00,
2013-06-05 03:32:00,50.0,48.0,30.10,WNW,296,0.0,0.0,93,0.00,,,0.00,,2013-06-05 07:32:00,
2013-06-05 03:42:00,50.0,48.0,30.10,WNW,296,0.0,0.0,93,0.00,,,0.00,,2013-06-05 07:42:00,
2013-06-05 03:52:00,50.0,48.0,30.10,WNW,296,0.0,0.0,94,0.00,,,0.00,,2013-06-05 07:52:00,
2013-06-05 04:02:00,50.0,49.0,30.09,WNW,296,0.0,0.0,95,0.00,,,0.00,,2013-06-05 08:02:00,
2013-06-05 04:12:00,50.0,49.0,30.09,WNW,296,0.0,0.0,95,0.00,,,0.00,,2013-06-05 08:12:00,
2013-06-05 04:22:00,50.0,49.0,30.09,WNW,296,0.0,0.0,96,0.00,,,0.00,,2013-06-05 08:22:00,
2013-06-05 04:32:00,50.0,49.0,30.09,WNW,296,0.0,0.0,96,0.00,,,0.00,,2013-06-05 08:32:00,
2013-06-05 04:42:00,50.0,49.0,30.09,WNW,296,0.0,0.0,96,0.00,,,0.00,,2013-06-05 08:42:00,
2013-06-05 04:52:00,50.0,49.0,30.09,WNW,296,0.0,0.0,97,0.00,,,0.00,,2013-06-05 08:52:00,
2013-06-05 05:02:00,50.0,49.0,30.09,WNW,296,0.0,0.0,96,0.00,,,0.00,,2013-06-05 09:02:00,
2013-06-05 05:12:00,50.0,49.0,30.09,WNW,296,0.0,0.0,96,0.00,,,0.00,,2013-06-05 09:12:00,
2013-06-05 05:22:00,50.0,49.0,30.09,WNW,296,0.0,0.0,97,0.00,,,0.00,,2013-06-05 09:22:00,
2013-06-05 05:33:00,50.0,49.0,30.09,WNW,296,0.0,0.0,97,0.00,,,0.00,,2013-06-05 09:33:00,
2013-06-05 05:43:00,50.0,49.0,30.09,WNW,296,0.0,0.0,97,0.00,,,0.00,,2013-06-05 09:43:00,
2013-06-05 05:53:00,50.0,49.0,30.09,WNW,296,0.0,0.0,97,0.00,,,0.00,,2013-06-05 09:53:00,
2013-06-05 06:03:00,50.0,49.0,30.09,WNW,296,0.0,0.0,97,0.00,,,0.00,,2013-06-05 10:03:00,
2013-06-05 06:12:00,50.0,49.0,30.09,WNW,296,0.0,0.0,97,0.00,,,0.00,,2013-06-05 10:12:00,
2013-06-05 06:22:00,50.0,49.0,30.09,WNW,296,0.0,0.0,98,0.00,,,0.00,,2013-06-05 10:22:00,
2013-06-05 06:33:00,50.0,49.0,30.09,WNW,296,0.0,0.0,98,0.00,,,0.00,,2013-06-05 10:33:00,
2013-06-05 06:43:00,50.0,49.0,30.09,WNW,296,0.0,0.0,98,0.00,,,0.00,,2013-06-05 10:43:00,
2013-06-05 06:53:00,50.0,49.0,30.10,WNW,296,0.0,0.0,98,0.00,,,0.00,,2013-06-05 10:53:00,
2013-06-05 07:02:00,50.0,50.0,30.10,WNW,296,0.0,0.0,99,0.00,,,0.00,,2013-06-05 11:02:00,
2013-06-05 07:12:00,50.0,50.0,30.10,WNW,296,0.0,0.0,99,0.00,,,0.00,,2013-06-05 11:12:00,
2013-06-05 07:22:00,51.0,50.0,30.10,WNW,296,0.0,0.0,98,0.00,,,0.00,,2013-06-05 11:22:00,
2013-06-05 07:33:00,51.0,50.0,30.10,WNW,296,0.0,0.0,98,0.00,,,0.00,,2013-06-05 11:33:00,
2013-06-05 07:42:00,51.0,50.0,30.10,WNW,296,0.0,0.0,98,0.00,,,0.00,,2013-06-05 11:42:00,
2013-06-05 07:52:00,52.0,51.0,30.10,WNW,296,0.0,0.0,98,0.00,,,0.00,,2013-06-05 11:52:00,
2013-06-05 08:02:00,53.0,52.0,30.10,WNW,296,0.0,0.0,98,0.00,,,0.00,,2013-06-05 12:02:00,
2013-06-05 08:12:00,53.0,52.0,30.10,WNW,296,0.0,0.0,98,0.00,,,0.00,,2013-06-05 12:12:00,
2013-06-05 08:22:00,54.0,51.0,30.09,NE,45,3.0,3.0,90,0.00,,,0.00,,2013-06-05 12:22:00,
2013-06-05 08:32:00,57.0,51.0,30.09,ENE,64,0.0,0.0,81,0.00,,,0.00,,2013-06-05 12:32:00,
2013-06-05 08:44:00,57.0,51.0,30.09,ENE,64,0.0,0.0,81,0.00,,,0.00,,2013-06-05 12:44:00,
2013-06-05 08:52:00,59.0,50.0,30.09,ENE,64,0.0,0.0,73,0.00,,,0.00,,2013-06-05 12:52:00,
2013-06-05 09:02:00,59.0,50.0,30.09,ENE,64,0.0,0.0,71,0.00,,,0.00,,2013-06-05 13:02:00,
2013-06-05 09:12:00,59.0,49.0,30.08,NE,53,0.0,0.0,70,0.00,,,0.00,,2013-06-05 13:12:00,
2013-06-05 09:22:00,59.0,49.0,30.08,NE,53,0.0,0.0,70,0.00,,,0.00,,2013-06-05 13:22:00,
2013-06-05 09:33:00,60.0,49.0,30.09,East,85,0.0,8.0,68,0.00,,,0.00,,2013-06-05 13:33:00,
2013-06-05 09:42:00,62.0,51.0,30.09,East,92,0.0,0.0,66,0.00,,,0.00,,2013-06-05 13:42:00,
2013-06-05 09:52:00,62.0,51.0,30.09,East,92,0.0,0.0,66,0.00,,,0.00,,2013-06-05 13:52:00,
2013-06-05 10:02:00,63.0,51.0,30.09,ESE,123,0.0,3.0,64,0.00,,,0.00,,2013-06-05 14:02:00,
2013-06-05 10:12:00,67.0,52.0,30.09,ESE,113,0.0,4.0,59,0.00,,,0.00,,2013-06-05 14:12:00,
2013-06-05 10:22:00,67.0,52.0,30.09,ESE,113,0.0,4.0,59,0.00,,,0.00,,2013-06-05 14:22:00,
2013-06-05 10:32:00,68.0,52.0,30.09,NNE,19,0.0,4.0,57,0.00,,,0.00,,2013-06-05 14:32:00,
2013-06-05 10:42:00,69.0,52.0,30.09,ENE,70,2.0,3.0,55,0.00,,,0.00,,2013-06-05 14:42:00,
2013-06-05 10:52:00,69.0,52.0,30.09,ENE,70,2.0,3.0,55,0.00,,,0.00,,2013-06-05 14:52:00,
2013-06-05 11:02:00,70.0,52.0,30.08,NE,45,0.0,0.0,52,0.00,,,0.00,,2013-06-05 15:02:00,
2013-06-05 11:12:00,72.0,52.0,30.06,ENE,57,0.0,0.0,49,0.00,,,0.00,,2013-06-05 15:12:00,
2013-06-05 11:22:00,72.0,52.0,30.06,ENE,57,0.0,0.0,49,0.00,,,0.00,,2013-06-05 15:22:00,
2013-06-05 11:33:00,73.0,52.0,30.05,ENE,57,0.0,0.0,48,0.00,,,0.00,,2013-06-05 15:33:00,
2013-06-05 12:03:00,74.0,52.0,30.05,WSW,239,0.0,0.0,46,0.00,,,0.00,,2013-06-05 16:03:00,
2013-06-05 12:12:00,76.0,53.0,30.04,ESE,102,0.0,6.0,45,0.00,,,0.00,,2013-06-05 16:12:00,
2013-06-05 12:23:00,76.0,53.0,30.04,ESE,102,0.0,6.0,45,0.00,,,0.00,,2013-06-05 16:23:00,
2013-06-05 12:32:00,76.0,51.0,30.03,ESE,102,0.0,0.0,42,0.00,,,0.00,,2013-06-05 16:32:00,
2013-06-05 12:42:00,77.0,52.0,30.02,ESE,102,0.0,0.0,42,0.00,,,0.00,,2013-06-05 16:42:00,
2013-06-05 12:54:00,77.0,52.0,30.02,ESE,102,0.0,0.0,42,0.00,,,0.00,,2013-06-05 16:54:00,
2013-06-05 13:02:00,78.0,52.0,30.02,ESE,102,0.0,0.0,40,0.00,,,0.00,,2013-06-05 17:02:00,
2013-06-05 13:12:00,79.0,53.0,30.02,NE,53,0.0,0.0,41,0.00,,,0.00,,2013-06-05 17:12:00,
2013-06-05 13:22:00,79.0,53.0,30.02,NE,53,0.0,0.0,41,0.00,,,0.00,,2013-06-05 17:22:00,
2013-06-05 13:33:00,79.0,52.0,30.02,ENE,71,0.0,6.0,39,0.00,,,0.00,,2013-06-05 17:33:00,
2013-06-05 13:43:00,79.0,51.0,30.01,ENE,71,0.0,0.0,38,0.00,,,0.00,,2013-06-05 17:43:00,
2013-06-05 13:52:00,79.0,51.0,30.01,ENE,71,0.0,0.0,38,0.00,,,0.00,,2013-06-05 17:52:00,
2013-06-05 14:02:00,78.0,55.0,30.01,North,351,0.0,4.0,45,0.00,,,0.00,,2013-06-05 18:02:00,
2013-06-05 14:12:00,76.0,55.0,30.01,South,191,3.0,4.0,49,0.00,,,0.00,,2013-06-05 18:12:00,
2013-06-05 14:22:00,76.0,55.0,30.01,South,191,3.0,4.0,49,0.00,,,0.00,,2013-06-05 18:22:00,
2013-06-05 14:32:00,76.0,55.0,30.01,SSW,206,0.0,3.0,48,0.00,,,0.00,,2013-06-05 18:32:00,
2013-06-05 14:42:00,76.0,55.0,30.01,NNW,348,0.0,0.0,49,0.00,,,0.00,,2013-06-05 18:42:00,
2013-06-05 14:52:00,76.0,55.0,30.01,NNW,348,0.0,0.0,49,0.00,,,0.00,,2013-06-05 18:52:00,
2013-06-05 15:02:00,76.0,55.0,30.01,WSW,246,0.0,0.0,48,0.00,,,0.00,,2013-06-05 19:02:00,
2013-06-05 15:12:00,76.0,55.0,30.01,WSW,246,0.0,0.0,48,0.00,,,0.00,,2013-06-05 19:12:00,
2013-06-05 15:23:00,76.0,55.0,30.01,SSW,205,2.0,3.0,49,0.00,,,0.00,,2013-06-05 19:23:00,
2013-06-05 15:32:00,76.0,55.0,30.01,NW,310,0.0,0.0,49,0.00,,,0.00,,2013-06-05 19:32:00,
2013-06-05 15:42:00,75.0,55.0,30.00,NW,310,0.0,0.0,49,0.00,,,0.00,,2013-06-05 19:42:00,
2013-06-05 15:53:00,75.0,55.0,30.00,NW,310,0.0,0.0,49,0.00,,,0.00,,2013-06-05 19:53:00,
2013-06-05 16:02:00,75.0,55.0,29.99,WNW,289,0.0,1.0,50,0.00,,,0.00,,2013-06-05 20:02:00,
2013-06-05 16:12:00,75.0,56.0,29.98,East,92,0.0,6.0,52,0.00,,,0.00,,2013-06-05 20:12:00,
2013-06-05 16:23:00,75.0,56.0,29.98,East,92,0.0,6.0,52,0.00,,,0.00,,2013-06-05 20:23:00,
2013-06-05 16:32:00,75.0,56.0,29.97,East,92,0.0,0.0,52,0.00,,,0.00,,2013-06-05 20:32:00,
2013-06-05 16:42:00,75.0,56.0,29.97,East,92,0.0,0.0,52,0.00,,,0.00,,2013-06-05 20:42:00,
2013-06-05 16:52:00,75.0,56.0,29.97,East,92,0.0,0.0,52,0.00,,,0.00,,2013-06-05 20:52:00,
2013-06-05 17:02:00,75.0,56.0,29.96,ESE,112,0.0,0.0,52,0.00,,,0.00,,2013-06-05 21:02:00,
2013-06-05 17:12:00,76.0,57.0,29.96,East,94,0.0,0.0,52,0.00,,,0.00,,2013-06-05 21:12:00,
2013-06-05 17:22:00,76.0,57.0,29.96,East,94,0.0,0.0,52,0.00,,,0.00,,2013-06-05 21:22:00,
2013-06-05 17:33:00,76.0,57.0,29.95,East,94,0.0,0.0,51,0.00,,,0.00,,2013-06-05 21:33:00,
2013-06-05 17:43:00,77.0,57.0,29.95,East,94,0.0,0.0,51,0.00,,,0.00,,2013-06-05 21:43:00,
2013-06-05 17:53:00,77.0,57.0,29.95,East,94,0.0,0.0,51,0.00,,,0.00,,2013-06-05 21:53:00,
2013-06-05 18:02:00,76.0,56.0,29.94,East,94,0.0,0.0,50,0.00,,,0.00,,2013-06-05 22:02:00,
2013-06-05 18:12:00,76.0,56.0,29.94,East,94,0.0,0.0,50,0.00,,,0.00,,2013-06-05 22:12:00,
2013-06-05 18:22:00,76.0,56.0,29.94,East,94,0.0,0.0,50,0.00,,,0.00,,2013-06-05 22:22:00,
2013-06-05 18:33:00,76.0,56.0,29.93,East,94,0.0,0.0,50,0.00,,,0.00,,2013-06-05 22:33:00,
2013-06-05 18:42:00,76.0,57.0,29.93,East,94,0.0,0.0,51,0.00,,,0.00,,2013-06-05 22:42:00,
2013-06-05 18:53:00,76.0,57.0,29.93,East,94,0.0,0.0,51,0.00,,,0.00,,2013-06-05 22:53:00,
2013-06-05 19:02:00,76.0,57.0,29.93,East,94,0.0,0.0,51,0.00,,,0.00,,2013-06-05 23:02:00,
2013-06-05 19:12:00,74.0,55.0,29.93,East,94,0.0,0.0,51,0.00,,,0.00,,2013-06-05 23:12:00,
2013-06-05 19:22:00,74.0,55.0,29.93,East,94,0.0,0.0,51,0.00,,,0.00,,2013-06-05 23:22:00,
2013-06-05 19:32:00,72.0,54.0,29.93,East,94,0.0,0.0,54,0.00,,,0.00,,2013-06-05 23:32:00,
2013-06-05 19:42:00,72.0,54.0,29.93,East,94,0.0,0.0,54,0.00,,,0.00,,2013-06-05 23:42:00,
2013-06-05 19:53:00,70.0,53.0,29.93,East,94,0.0,0.0,55,0.00,,,0.00,,2013-06-05 23:53:00,
2013-06-05 20:02:00,68.0,52.0,29.93,East,94,0.0,0.0,57,0.00,,,0.00,,2013-06-06 00:02:00,
2013-06-05 20:12:00,66.0,50.0,29.93,East,94,0.0,0.0,57,0.00,,,0.00,,2013-06-06 00:12:00,
2013-06-05 20:22:00,66.0,50.0,29.93,East,94,0.0,0.0,57,0.00,,,0.00,,2013-06-06 00:22:00,
2013-06-05 20:32:00,66.0,50.0,29.92,NNE,19,0.0,6.0,57,0.00,,,0.00,,2013-06-06 00:32:00,
2013-06-05 20:43:00,66.0,50.0,29.92,NNE,19,0.0,6.0,57,0.00,,,0.00,,2013-06-06 00:43:00,
2013-06-05 20:52:00,66.0,50.0,29.92,NNE,19,0.0,6.0,57,0.00,,,0.00,,2013-06-06 00:52:00,
2013-06-05 21:02:00,65.0,49.0,29.92,NNE,19,0.0,0.0,57,0.00,,,0.00,,2013-06-06 01:02:00,
2013-06-05 21:12:00,64.0,50.0,29.92,NNE,19,0.0,0.0,60,0.00,,,0.00,,2013-06-06 01:12:00,
2013-06-05 21:22:00,64.0,50.0,29.92,NNE,19,0.0,0.0,60,0.00,,,0.00,,2013-06-06 01:22:00,
2013-06-05 21:32:00,63.0,49.0,29.92,NNE,19,0.0,0.0,61,0.00,,,0.00,,2013-06-06 01:32:00,
2013-06-05 21:42:00,62.0,49.0,29.93,NNE,19,0.0,0.0,63,0.00,,,0.00,,2013-06-06 01:42:00,
2013-06-05 21:53:00,62.0,49.0,29.93,NNE,19,0.0,0.0,63,0.00,,,0.00,,2013-06-06 01:53:00,
2013-06-05 22:02:00,61.0,49.0,29.93,NNE,19,0.0,0.0,65,0.00,,,0.00,,2013-06-06 02:02:00,
2013-06-05 22:12:00,61.0,50.0,29.93,NNE,19,0.0,0.0,67,0.00,,,0.00,,2013-06-06 02:12:00,
2013-06-05 22:22:00,61.0,50.0,29.93,NNE,19,0.0,0.0,67,0.00,,,0.00,,2013-06-06 02:22:00,
2013-06-05 22:32:00,60.0,49.0,29.93,NNE,19,0.0,0.0,67,0.00,,,0.00,,2013-06-06 02:32:00,
2013-06-05 22:42:00,60.0,49.0,29.93,NNE,19,0.0,0.0,67,0.00,,,0.00,,2013-06-06 02:42:00,
2013-06-05 22:52:00,60.0,49.0,29.93,NNE,19,0.0,0.0,67,0.00,,,0.00,,2013-06-06 02:52:00,
2013-06-05 23:02:00,60.0,49.0,29.93,NNE,19,0.0,0.0,68,0.00,,,0.00,,2013-06-06 03:02:00,
2013-06-05 23:12:00,60.0,50.0,29.92,NNE,19,0.0,0.0,70,0.00,,,0.00,,2013-06-06 03:12:00,
2013-06-05 23:22:00,60.0,50.0,29.92,NNE,19,0.0,0.0,70,0.00,,,0.00,,2013-06-06 03:22:00,
2013-06-05 23:33:00,60.0,50.0,29.92,NNE,19,0.0,0.0,70,0.00,,,0.00,,2013-06-06 03:33:00,
2013-06-05 23:43:00,60.0,52.0,29.91,NNE,19,0.0,0.0,74,0.00,,,0.00,,2013-06-06 03:43:00,
2013-06-05 23:53:00,60.0,52.0,29.91,NNE,19,0.0,0.0,74,0.00,,,0.00,,2013-06-06 03:53:00,